Terminal Aerodrome Forecast
Issued by NWS

Home | Current Version | Previous Version | Graphics & Text | Print | Product List | Glossary On
Versions: 1 2 3 4 5 6 7 8 9 10 11 12 13 14 15 16
000
FTUS45 KGGW 240731 AAA
TAFGDV
TAF AMD
KGDV 240731Z 2408/2506 01005KT 6SM -RA OVC016
      TEMPO 2408/2412 5SM -RA BKN007
     FM241700 02008KT P6SM OVC025
     FM242200 VRB06KT P6SM OVC035=

USA.gov is the U.S. government's official web portal to all federal, state and local government web resources and services.